sensor_id;sensor_type;location;lat;lon;timestamp;P1;durP1;ratioP1;P2;durP2;ratioP2
44304;SDS011;30019;50.576;8.568;2023-04-24T00:00:23;0.70;;;0.70;;
44304;SDS011;30019;50.576;8.568;2023-04-24T00:02:49;1.58;;;0.70;;
44304;SDS011;30019;50.576;8.568;2023-04-24T00:05:15;0.80;;;0.80;;
44304;SDS011;30019;50.576;8.568;2023-04-24T00:07:42;1.05;;;0.93;;
44304;SDS011;30019;50.576;8.568;2023-04-24T00:10:08;2.58;;;0.88;;
44304;SDS011;30019;50.576;8.568;2023-04-24T00:12:34;0.80;;;0.80;;
44304;SDS011;30019;50.576;8.568;2023-04-24T00:15:00;0.77;;;0.70;;
44304;SDS011;30019;50.576;8.568;2023-04-24T00:17:26;2.08;;;0.80;;
44304;SDS011;30019;50.576;8.568;2023-04-24T00:19:51;0.90;;;0.80;;
44304;SDS011;30019;50.576;8.568;2023-04-24T00:22:23;2.87;;;0.90;;
44304;SDS011;30019;50.576;8.568;2023-04-24T00:24:50;0.88;;;0.85;;
44304;SDS011;30019;50.576;8.568;2023-04-24T00:27:15;1.27;;;0.80;;
44304;SDS011;30019;50.576;8.568;2023-04-24T00:29:41;1.23;;;0.90;;
44304;SDS011;30019;50.576;8.568;2023-04-24T00:32:06;0.95;;;0.95;;
44304;SDS011;30019;50.576;8.568;2023-04-24T00:34:32;1.70;;;1.08;;
44304;SDS011;30019;50.576;8.568;2023-04-24T00:36:57;1.75;;;0.88;;
44304;SDS011;30019;50.576;8.568;2023-04-24T00:39:23;1.30;;;0.70;;
44304;SDS011;30019;50.576;8.568;2023-04-24T00:41:49;0.88;;;0.88;;
44304;SDS011;30019;50.576;8.568;2023-04-24T00:44:16;0.70;;;0.70;;
44304;SDS011;30019;50.576;8.568;2023-04-24T00:46:42;0.77;;;0.70;;
44304;SDS011;30019;50.576;8.568;2023-04-24T00:49:08;1.12;;;0.60;;
44304;SDS011;30019;50.576;8.568;2023-04-24T00:51:33;0.60;;;0.60;;
44304;SDS011;30019;50.576;8.568;2023-04-24T00:53:59;1.10;;;0.70;;
44304;SDS011;30019;50.576;8.568;2023-04-24T00:56:25;0.60;;;0.60;;
44304;SDS011;30019;50.576;8.568;2023-04-24T00:58:51;0.60;;;0.60;;
44304;SDS011;30019;50.576;8.568;2023-04-24T01:01:20;1.85;;;0.70;;
44304;SDS011;30019;50.576;8.568;2023-04-24T01:03:47;1.48;;;0.80;;
44304;SDS011;30019;50.576;8.568;2023-04-24T01:06:15;1.05;;;0.60;;
44304;SDS011;30019;50.576;8.568;2023-04-24T01:08:40;1.45;;;0.80;;
44304;SDS011;30019;50.576;8.568;2023-04-24T01:11:07;0.75;;;0.70;;
44304;SDS011;30019;50.576;8.568;2023-04-24T01:13:33;1.75;;;0.62;;
44304;SDS011;30019;50.576;8.568;2023-04-24T01:15:59;1.23;;;0.60;;
44304;SDS011;30019;50.576;8.568;2023-04-24T01:18:25;0.70;;;0.70;;
44304;SDS011;30019;50.576;8.568;2023-04-24T01:20:53;0.70;;;0.70;;
44304;SDS011;30019;50.576;8.568;2023-04-24T01:23:19;0.60;;;0.60;;
44304;SDS011;30019;50.576;8.568;2023-04-24T01:25:45;3.90;;;0.70;;
44304;SDS011;30019;50.576;8.568;2023-04-24T01:28:11;0.85;;;0.85;;
44304;SDS011;30019;50.576;8.568;2023-04-24T01:30:39;0.93;;;0.90;;
44304;SDS011;30019;50.576;8.568;2023-04-24T01:33:04;0.82;;;0.75;;
44304;SDS011;30019;50.576;8.568;2023-04-24T01:35:30;1.90;;;0.80;;
44304;SDS011;30019;50.576;8.568;2023-04-24T01:37:56;0.70;;;0.70;;
44304;SDS011;30019;50.576;8.568;2023-04-24T01:40:21;0.90;;;0.80;;
44304;SDS011;30019;50.576;8.568;2023-04-24T01:42:47;2.03;;;0.80;;
44304;SDS011;30019;50.576;8.568;2023-04-24T01:45:13;0.70;;;0.70;;
44304;SDS011;30019;50.576;8.568;2023-04-24T01:47:39;0.82;;;0.82;;
44304;SDS011;30019;50.576;8.568;2023-04-24T01:50:05;2.28;;;0.85;;
44304;SDS011;30019;50.576;8.568;2023-04-24T01:52:31;1.30;;;0.90;;
44304;SDS011;30019;50.576;8.568;2023-04-24T01:55:02;0.88;;;0.88;;
44304;SDS011;30019;50.576;8.568;2023-04-24T01:57:29;0.88;;;0.88;;
44304;SDS011;30019;50.576;8.568;2023-04-24T01:59:55;1.08;;;1.08;;
44304;SDS011;30019;50.576;8.568;2023-04-24T02:02:21;1.37;;;1.10;;
44304;SDS011;30019;50.576;8.568;2023-04-24T02:04:49;1.42;;;0.93;;
44304;SDS011;30019;50.576;8.568;2023-04-24T02:07:15;0.95;;;0.95;;
44304;SDS011;30019;50.576;8.568;2023-04-24T02:09:40;1.77;;;1.02;;
44304;SDS011;30019;50.576;8.568;2023-04-24T02:12:06;4.43;;;1.35;;
44304;SDS011;30019;50.576;8.568;2023-04-24T02:14:32;1.37;;;0.80;;
44304;SDS011;30019;50.576;8.568;2023-04-24T02:16:57;1.30;;;1.20;;
44304;SDS011;30019;50.576;8.568;2023-04-24T02:19:23;1.30;;;1.15;;
44304;SDS011;30019;50.576;8.568;2023-04-24T02:21:48;0.90;;;0.90;;
44304;SDS011;30019;50.576;8.568;2023-04-24T02:24:14;0.90;;;0.90;;
44304;SDS011;30019;50.576;8.568;2023-04-24T02:26:40;0.80;;;0.80;;
44304;SDS011;30019;50.576;8.568;2023-04-24T02:29:06;2.72;;;1.10;;
44304;SDS011;30019;50.576;8.568;2023-04-24T02:31:31;1.40;;;0.77;;
44304;SDS011;30019;50.576;8.568;2023-04-24T02:33:57;0.88;;;0.80;;
44304;SDS011;30019;50.576;8.568;2023-04-24T02:36:23;0.90;;;0.90;;
44304;SDS011;30019;50.576;8.568;2023-04-24T02:38:48;0.88;;;0.82;;
44304;SDS011;30019;50.576;8.568;2023-04-24T02:41:14;0.70;;;0.70;;
44304;SDS011;30019;50.576;8.568;2023-04-24T02:43:39;0.80;;;0.80;;
44304;SDS011;30019;50.576;8.568;2023-04-24T02:46:05;1.80;;;0.90;;
44304;SDS011;30019;50.576;8.568;2023-04-24T02:48:30;1.75;;;0.90;;
44304;SDS011;30019;50.576;8.568;2023-04-24T02:50:56;1.85;;;0.73;;
44304;SDS011;30019;50.576;8.568;2023-04-24T02:53:22;0.65;;;0.65;;
44304;SDS011;30019;50.576;8.568;2023-04-24T02:55:48;1.15;;;0.65;;
44304;SDS011;30019;50.576;8.568;2023-04-24T02:58:14;2.65;;;1.05;;
44304;SDS011;30019;50.576;8.568;2023-04-24T03:00:39;0.60;;;0.60;;
44304;SDS011;30019;50.576;8.568;2023-04-24T03:03:05;1.65;;;0.60;;
44304;SDS011;30019;50.576;8.568;2023-04-24T03:05:31;0.68;;;0.62;;
44304;SDS011;30019;50.576;8.568;2023-04-24T03:07:57;0.60;;;0.60;;
44304;SDS011;30019;50.576;8.568;2023-04-24T03:10:23;1.35;;;0.70;;
44304;SDS011;30019;50.576;8.568;2023-04-24T03:12:48;0.70;;;0.70;;
44304;SDS011;30019;50.576;8.568;2023-04-24T03:15:14;1.75;;;0.70;;
44304;SDS011;30019;50.576;8.568;2023-04-24T03:17:40;0.73;;;0.73;;
44304;SDS011;30019;50.576;8.568;2023-04-24T03:20:06;1.35;;;0.77;;
44304;SDS011;30019;50.576;8.568;2023-04-24T03:22:33;0.60;;;0.60;;
44304;SDS011;30019;50.576;8.568;2023-04-24T03:24:59;0.80;;;0.77;;
44304;SDS011;30019;50.576;8.568;2023-04-24T03:27:24;0.68;;;0.68;;
44304;SDS011;30019;50.576;8.568;2023-04-24T03:29:50;1.20;;;0.60;;
44304;SDS011;30019;50.576;8.568;2023-04-24T03:32:23;0.80;;;0.80;;
44304;SDS011;30019;50.576;8.568;2023-04-24T03:34:49;0.80;;;0.65;;
44304;SDS011;30019;50.576;8.568;2023-04-24T03:37:15;0.90;;;0.90;;
44304;SDS011;30019;50.576;8.568;2023-04-24T03:39:41;1.10;;;0.85;;
44304;SDS011;30019;50.576;8.568;2023-04-24T03:42:07;0.57;;;0.57;;
44304;SDS011;30019;50.576;8.568;2023-04-24T03:44:33;2.83;;;0.88;;
44304;SDS011;30019;50.576;8.568;2023-04-24T03:46:59;0.60;;;0.60;;
44304;SDS011;30019;50.576;8.568;2023-04-24T03:49:25;3.00;;;1.08;;
44304;SDS011;30019;50.576;8.568;2023-04-24T03:51:51;1.85;;;0.80;;
44304;SDS011;30019;50.576;8.568;2023-04-24T03:54:17;0.90;;;0.80;;
44304;SDS011;30019;50.576;8.568;2023-04-24T03:56:43;1.15;;;0.65;;
44304;SDS011;30019;50.576;8.568;2023-04-24T03:59:09;0.80;;;0.80;;
44304;SDS011;30019;50.576;8.568;2023-04-24T04:01:34;0.70;;;0.70;;
44304;SDS011;30019;50.576;8.568;2023-04-24T04:04:04;0.93;;;0.85;;
44304;SDS011;30019;50.576;8.568;2023-04-24T04:06:33;0.70;;;0.70;;
44304;SDS011;30019;50.576;8.568;2023-04-24T04:08:59;0.85;;;0.85;;
44304;SDS011;30019;50.576;8.568;2023-04-24T04:11:25;0.80;;;0.80;;
44304;SDS011;30019;50.576;8.568;2023-04-24T04:13:51;0.88;;;0.85;;
44304;SDS011;30019;50.576;8.568;2023-04-24T04:16:17;1.52;;;0.75;;
44304;SDS011;30019;50.576;8.568;2023-04-24T04:18:43;2.58;;;1.02;;
44304;SDS011;30019;50.576;8.568;2023-04-24T04:21:09;0.95;;;0.90;;
44304;SDS011;30019;50.576;8.568;2023-04-24T04:23:34;1.95;;;0.85;;
44304;SDS011;30019;50.576;8.568;2023-04-24T04:26:00;1.80;;;1.12;;
44304;SDS011;30019;50.576;8.568;2023-04-24T04:28:26;0.80;;;0.80;;
44304;SDS011;30019;50.576;8.568;2023-04-24T04:30:52;1.10;;;0.93;;
44304;SDS011;30019;50.576;8.568;2023-04-24T04:33:22;1.75;;;1.20;;
44304;SDS011;30019;50.576;8.568;2023-04-24T04:35:51;1.27;;;1.10;;
44304;SDS011;30019;50.576;8.568;2023-04-24T04:38:17;0.80;;;0.80;;
44304;SDS011;30019;50.576;8.568;2023-04-24T04:40:44;1.02;;;1.02;;
44304;SDS011;30019;50.576;8.568;2023-04-24T04:43:10;8.48;;;4.87;;
44304;SDS011;30019;50.576;8.568;2023-04-24T04:45:36;2.87;;;1.58;;
44304;SDS011;30019;50.576;8.568;2023-04-24T04:48:03;1.55;;;1.45;;
44304;SDS011;30019;50.576;8.568;2023-04-24T04:50:29;2.10;;;1.52;;
44304;SDS011;30019;50.576;8.568;2023-04-24T04:52:55;1.02;;;1.02;;
44304;SDS011;30019;50.576;8.568;2023-04-24T04:55:21;5.78;;;1.50;;
44304;SDS011;30019;50.576;8.568;2023-04-24T04:57:47;1.62;;;1.17;;
44304;SDS011;30019;50.576;8.568;2023-04-24T05:00:12;3.00;;;1.23;;
44304;SDS011;30019;50.576;8.568;2023-04-24T05:02:38;1.55;;;1.30;;
44304;SDS011;30019;50.576;8.568;2023-04-24T05:05:04;1.73;;;1.48;;
44304;SDS011;30019;50.576;8.568;2023-04-24T05:07:31;1.27;;;1.23;;
44304;SDS011;30019;50.576;8.568;2023-04-24T05:09:56;1.50;;;1.35;;
44304;SDS011;30019;50.576;8.568;2023-04-24T05:12:22;3.08;;;1.27;;
44304;SDS011;30019;50.576;8.568;2023-04-24T05:14:47;1.67;;;1.58;;
44304;SDS011;30019;50.576;8.568;2023-04-24T05:17:13;3.67;;;2.00;;
44304;SDS011;30019;50.576;8.568;2023-04-24T05:19:39;1.75;;;1.50;;
44304;SDS011;30019;50.576;8.568;2023-04-24T05:22:04;1.48;;;1.30;;
44304;SDS011;30019;50.576;8.568;2023-04-24T05:24:32;1.60;;;1.50;;
44304;SDS011;30019;50.576;8.568;2023-04-24T05:26:58;1.55;;;1.45;;
44304;SDS011;30019;50.576;8.568;2023-04-24T05:29:24;2.28;;;1.73;;
44304;SDS011;30019;50.576;8.568;2023-04-24T05:31:51;1.67;;;1.52;;
44304;SDS011;30019;50.576;8.568;2023-04-24T05:34:17;3.80;;;1.50;;
44304;SDS011;30019;50.576;8.568;2023-04-24T05:36:43;1.90;;;1.73;;
44304;SDS011;30019;50.576;8.568;2023-04-24T05:39:08;2.80;;;1.70;;
44304;SDS011;30019;50.576;8.568;2023-04-24T05:41:34;2.80;;;1.87;;
44304;SDS011;30019;50.576;8.568;2023-04-24T05:44:00;1.92;;;1.83;;
44304;SDS011;30019;50.576;8.568;2023-04-24T05:46:25;1.65;;;1.45;;
44304;SDS011;30019;50.576;8.568;2023-04-24T05:48:51;1.70;;;1.60;;
44304;SDS011;30019;50.576;8.568;2023-04-24T05:51:16;1.60;;;1.45;;
44304;SDS011;30019;50.576;8.568;2023-04-24T05:53:42;1.98;;;1.87;;
44304;SDS011;30019;50.576;8.568;2023-04-24T05:56:08;4.97;;;2.60;;
44304;SDS011;30019;50.576;8.568;2023-04-24T05:58:33;1.92;;;1.62;;
44304;SDS011;30019;50.576;8.568;2023-04-24T06:00:59;1.70;;;1.50;;
44304;SDS011;30019;50.576;8.568;2023-04-24T06:03:26;1.52;;;1.40;;
44304;SDS011;30019;50.576;8.568;2023-04-24T06:05:52;2.17;;;1.35;;
44304;SDS011;30019;50.576;8.568;2023-04-24T06:08:18;1.50;;;1.40;;
44304;SDS011;30019;50.576;8.568;2023-04-24T06:10:44;1.10;;;1.10;;
44304;SDS011;30019;50.576;8.568;2023-04-24T06:13:10;1.50;;;1.40;;
44304;SDS011;30019;50.576;8.568;2023-04-24T06:15:37;1.50;;;1.40;;
44304;SDS011;30019;50.576;8.568;2023-04-24T06:18:03;1.60;;;1.48;;
44304;SDS011;30019;50.576;8.568;2023-04-24T06:20:28;1.80;;;1.70;;
44304;SDS011;30019;50.576;8.568;2023-04-24T06:22:54;1.98;;;1.85;;
44304;SDS011;30019;50.576;8.568;2023-04-24T06:25:20;2.00;;;1.90;;
44304;SDS011;30019;50.576;8.568;2023-04-24T06:27:45;2.20;;;2.00;;
44304;SDS011;30019;50.576;8.568;2023-04-24T06:30:11;5.05;;;2.40;;
44304;SDS011;30019;50.576;8.568;2023-04-24T06:32:37;2.55;;;2.33;;
44304;SDS011;30019;50.576;8.568;2023-04-24T06:35:03;2.55;;;2.28;;
44304;SDS011;30019;50.576;8.568;2023-04-24T06:37:29;2.70;;;2.47;;
44304;SDS011;30019;50.576;8.568;2023-04-24T06:39:55;3.25;;;2.40;;
44304;SDS011;30019;50.576;8.568;2023-04-24T06:42:20;5.32;;;2.60;;
44304;SDS011;30019;50.576;8.568;2023-04-24T06:44:46;2.40;;;2.20;;
44304;SDS011;30019;50.576;8.568;2023-04-24T06:47:12;5.82;;;2.35;;
44304;SDS011;30019;50.576;8.568;2023-04-24T06:49:38;2.80;;;2.55;;
44304;SDS011;30019;50.576;8.568;2023-04-24T06:52:05;3.28;;;2.65;;
44304;SDS011;30019;50.576;8.568;2023-04-24T06:54:31;3.35;;;2.35;;
44304;SDS011;30019;50.576;8.568;2023-04-24T06:56:57;5.87;;;2.90;;
44304;SDS011;30019;50.576;8.568;2023-04-24T06:59:24;3.35;;;2.20;;
44304;SDS011;30019;50.576;8.568;2023-04-24T07:01:50;4.03;;;3.05;;
44304;SDS011;30019;50.576;8.568;2023-04-24T07:04:18;2.83;;;2.58;;
44304;SDS011;30019;50.576;8.568;2023-04-24T07:06:47;2.50;;;2.30;;
44304;SDS011;30019;50.576;8.568;2023-04-24T07:09:14;4.93;;;2.55;;
44304;SDS011;30019;50.576;8.568;2023-04-24T07:11:41;2.95;;;2.30;;
44304;SDS011;30019;50.576;8.568;2023-04-24T07:14:07;2.95;;;2.40;;
44304;SDS011;30019;50.576;8.568;2023-04-24T07:16:32;3.80;;;3.15;;
44304;SDS011;30019;50.576;8.568;2023-04-24T07:21:27;2.83;;;2.53;;
44304;SDS011;30019;50.576;8.568;2023-04-24T07:23:52;2.95;;;2.47;;
44304;SDS011;30019;50.576;8.568;2023-04-24T07:26:19;2.75;;;2.47;;
44304;SDS011;30019;50.576;8.568;2023-04-24T07:28:45;2.78;;;2.37;;
44304;SDS011;30019;50.576;8.568;2023-04-24T07:31:11;2.67;;;2.47;;
44304;SDS011;30019;50.576;8.568;2023-04-24T07:33:37;2.60;;;2.40;;
44304;SDS011;30019;50.576;8.568;2023-04-24T07:36:03;4.62;;;2.87;;
44304;SDS011;30019;50.576;8.568;2023-04-24T07:38:29;5.65;;;2.65;;
44304;SDS011;30019;50.576;8.568;2023-04-24T07:40:55;4.47;;;2.50;;
44304;SDS011;30019;50.576;8.568;2023-04-24T07:43:21;4.85;;;1.90;;
44304;SDS011;30019;50.576;8.568;2023-04-24T07:45:48;2.67;;;2.10;;
44304;SDS011;30019;50.576;8.568;2023-04-24T07:48:14;3.83;;;2.45;;
44304;SDS011;30019;50.576;8.568;2023-04-24T07:50:41;4.18;;;2.05;;
44304;SDS011;30019;50.576;8.568;2023-04-24T07:53:07;3.42;;;2.30;;
44304;SDS011;30019;50.576;8.568;2023-04-24T07:55:32;3.47;;;2.08;;
44304;SDS011;30019;50.576;8.568;2023-04-24T07:57:58;2.40;;;2.20;;
44304;SDS011;30019;50.576;8.568;2023-04-24T08:00:24;3.70;;;2.08;;
44304;SDS011;30019;50.576;8.568;2023-04-24T08:02:50;2.12;;;2.00;;
44304;SDS011;30019;50.576;8.568;2023-04-24T08:05:15;2.45;;;2.10;;
44304;SDS011;30019;50.576;8.568;2023-04-24T08:07:41;2.67;;;1.90;;
44304;SDS011;30019;50.576;8.568;2023-04-24T08:10:09;3.58;;;2.55;;
44304;SDS011;30019;50.576;8.568;2023-04-24T08:12:36;2.28;;;2.00;;
44304;SDS011;30019;50.576;8.568;2023-04-24T08:15:02;3.47;;;2.20;;
44304;SDS011;30019;50.576;8.568;2023-04-24T08:17:28;2.40;;;2.20;;
44304;SDS011;30019;50.576;8.568;2023-04-24T08:19:54;2.05;;;1.95;;
44304;SDS011;30019;50.576;8.568;2023-04-24T08:22:26;2.50;;;2.03;;
44304;SDS011;30019;50.576;8.568;2023-04-24T08:24:52;2.22;;;2.00;;
44304;SDS011;30019;50.576;8.568;2023-04-24T08:27:18;3.85;;;2.12;;
44304;SDS011;30019;50.576;8.568;2023-04-24T08:29:43;2.03;;;1.90;;
44304;SDS011;30019;50.576;8.568;2023-04-24T08:32:09;3.70;;;1.95;;
44304;SDS011;30019;50.576;8.568;2023-04-24T08:34:35;1.77;;;1.65;;
44304;SDS011;30019;50.576;8.568;2023-04-24T08:37:00;3.92;;;2.00;;
44304;SDS011;30019;50.576;8.568;2023-04-24T08:39:27;3.87;;;3.30;;
44304;SDS011;30019;50.576;8.568;2023-04-24T08:41:52;2.17;;;1.70;;
44304;SDS011;30019;50.576;8.568;2023-04-24T08:44:18;3.10;;;1.95;;
44304;SDS011;30019;50.576;8.568;2023-04-24T08:46:44;2.80;;;1.95;;
44304;SDS011;30019;50.576;8.568;2023-04-24T08:49:13;2.40;;;1.95;;
44304;SDS011;30019;50.576;8.568;2023-04-24T08:51:41;3.75;;;1.77;;
44304;SDS011;30019;50.576;8.568;2023-04-24T08:54:07;1.80;;;1.70;;
44304;SDS011;30019;50.576;8.568;2023-04-24T08:56:34;2.12;;;1.92;;
44304;SDS011;30019;50.576;8.568;2023-04-24T08:59:04;2.50;;;2.00;;
44304;SDS011;30019;50.576;8.568;2023-04-24T09:01:34;3.17;;;2.00;;
44304;SDS011;30019;50.576;8.568;2023-04-24T09:04:02;2.35;;;1.75;;
44304;SDS011;30019;50.576;8.568;2023-04-24T09:06:28;1.98;;;1.77;;
44304;SDS011;30019;50.576;8.568;2023-04-24T09:08:57;2.47;;;1.67;;
44304;SDS011;30019;50.576;8.568;2023-04-24T09:11:29;1.87;;;1.70;;
44304;SDS011;30019;50.576;8.568;2023-04-24T09:14:00;1.55;;;1.45;;
44304;SDS011;30019;50.576;8.568;2023-04-24T09:16:26;2.85;;;1.92;;
44304;SDS011;30019;50.576;8.568;2023-04-24T09:18:52;1.87;;;1.40;;
44304;SDS011;30019;50.576;8.568;2023-04-24T09:21:20;2.45;;;1.60;;
44304;SDS011;30019;50.576;8.568;2023-04-24T09:23:47;1.50;;;1.25;;
44304;SDS011;30019;50.576;8.568;2023-04-24T09:26:23;1.75;;;1.30;;
44304;SDS011;30019;50.576;8.568;2023-04-24T09:28:49;2.35;;;1.52;;
44304;SDS011;30019;50.576;8.568;2023-04-24T09:31:15;1.10;;;1.10;;
44304;SDS011;30019;50.576;8.568;2023-04-24T09:33:53;1.23;;;1.12;;
44304;SDS011;30019;50.576;8.568;2023-04-24T09:36:29;2.25;;;1.50;;
44304;SDS011;30019;50.576;8.568;2023-04-24T09:39:07;1.23;;;1.10;;
44304;SDS011;30019;50.576;8.568;2023-04-24T09:41:34;1.80;;;1.25;;
44304;SDS011;30019;50.576;8.568;2023-04-24T09:44:13;1.50;;;1.40;;
44304;SDS011;30019;50.576;8.568;2023-04-24T09:46:48;1.65;;;1.55;;
44304;SDS011;30019;50.576;8.568;2023-04-24T09:49:16;2.08;;;1.58;;
44304;SDS011;30019;50.576;8.568;2023-04-24T09:51:45;1.95;;;1.70;;
44304;SDS011;30019;50.576;8.568;2023-04-24T09:54:13;1.70;;;1.60;;
44304;SDS011;30019;50.576;8.568;2023-04-24T09:56:50;1.90;;;1.80;;
44304;SDS011;30019;50.576;8.568;2023-04-24T09:59:17;1.80;;;1.70;;
44304;SDS011;30019;50.576;8.568;2023-04-24T10:01:43;2.03;;;1.75;;
44304;SDS011;30019;50.576;8.568;2023-04-24T10:04:19;1.98;;;1.60;;
44304;SDS011;30019;50.576;8.568;2023-04-24T10:06:46;1.40;;;1.30;;
44304;SDS011;30019;50.576;8.568;2023-04-24T10:09:14;1.70;;;1.60;;
44304;SDS011;30019;50.576;8.568;2023-04-24T10:11:41;2.60;;;1.37;;
44304;SDS011;30019;50.576;8.568;2023-04-24T10:14:11;1.62;;;1.40;;
44304;SDS011;30019;50.576;8.568;2023-04-24T10:16:39;2.55;;;1.98;;
44304;SDS011;30019;50.576;8.568;2023-04-24T10:19:05;1.30;;;1.20;;
44304;SDS011;30019;50.576;8.568;2023-04-24T10:21:31;0.60;;;0.60;;
44304;SDS011;30019;50.576;8.568;2023-04-24T10:23:57;1.15;;;0.98;;
44304;SDS011;30019;50.576;8.568;2023-04-24T10:26:25;0.62;;;0.62;;
44304;SDS011;30019;50.576;8.568;2023-04-24T10:28:52;1.30;;;0.60;;
44304;SDS011;30019;50.576;8.568;2023-04-24T10:31:19;0.60;;;0.60;;
44304;SDS011;30019;50.576;8.568;2023-04-24T10:33:46;0.70;;;0.70;;
44304;SDS011;30019;50.576;8.568;2023-04-24T10:36:13;1.70;;;0.98;;
44304;SDS011;30019;50.576;8.568;2023-04-24T10:38:41;1.17;;;1.00;;
44304;SDS011;30019;50.576;8.568;2023-04-24T10:41:11;1.90;;;0.77;;
44304;SDS011;30019;50.576;8.568;2023-04-24T10:44:10;1.20;;;0.50;;
44304;SDS011;30019;50.576;8.568;2023-04-24T10:46:36;0.60;;;0.60;;
44304;SDS011;30019;50.576;8.568;2023-04-24T10:49:06;0.40;;;0.40;;
44304;SDS011;30019;50.576;8.568;2023-04-24T10:51:44;0.60;;;0.60;;
44304;SDS011;30019;50.576;8.568;2023-04-24T10:54:26;0.47;;;0.45;;
44304;SDS011;30019;50.576;8.568;2023-04-24T10:56:56;0.43;;;0.43;;
44304;SDS011;30019;50.576;8.568;2023-04-24T10:59:45;0.57;;;0.40;;
44304;SDS011;30019;50.576;8.568;2023-04-24T11:02:14;0.37;;;0.37;;
44304;SDS011;30019;50.576;8.568;2023-04-24T11:04:43;0.35;;;0.35;;
44304;SDS011;30019;50.576;8.568;2023-04-24T11:07:10;0.65;;;0.40;;
44304;SDS011;30019;50.576;8.568;2023-04-24T11:09:36;0.50;;;0.50;;
44304;SDS011;30019;50.576;8.568;2023-04-24T11:12:03;0.30;;;0.30;;
44304;SDS011;30019;50.576;8.568;2023-04-24T11:17:28;0.37;;;0.37;;
44304;SDS011;30019;50.576;8.568;2023-04-24T11:20:09;0.20;;;0.20;;
44304;SDS011;30019;50.576;8.568;2023-04-24T11:22:36;0.47;;;0.40;;
44304;SDS011;30019;50.576;8.568;2023-04-24T11:25:04;0.30;;;0.30;;
44304;SDS011;30019;50.576;8.568;2023-04-24T11:27:34;0.22;;;0.22;;
44304;SDS011;30019;50.576;8.568;2023-04-24T11:30:04;0.30;;;0.30;;
44304;SDS011;30019;50.576;8.568;2023-04-24T11:35:18;0.20;;;0.20;;
44304;SDS011;30019;50.576;8.568;2023-04-24T11:37:46;0.62;;;0.40;;
44304;SDS011;30019;50.576;8.568;2023-04-24T11:40:18;0.68;;;0.40;;
44304;SDS011;30019;50.576;8.568;2023-04-24T11:42:48;0.43;;;0.30;;
44304;SDS011;30019;50.576;8.568;2023-04-24T11:45:22;0.30;;;0.30;;
44304;SDS011;30019;50.576;8.568;2023-04-24T11:47:50;0.50;;;0.35;;
44304;SDS011;30019;50.576;8.568;2023-04-24T11:50:16;0.47;;;0.40;;
44304;SDS011;30019;50.576;8.568;2023-04-24T11:52:53;0.55;;;0.45;;
44304;SDS011;30019;50.576;8.568;2023-04-24T11:57:47;1.95;;;0.43;;
44304;SDS011;30019;50.576;8.568;2023-04-24T12:00:15;0.40;;;0.40;;
44304;SDS011;30019;50.576;8.568;2023-04-24T12:02:42;0.50;;;0.50;;
44304;SDS011;30019;50.576;8.568;2023-04-24T12:05:08;0.60;;;0.60;;
44304;SDS011;30019;50.576;8.568;2023-04-24T12:07:40;1.87;;;0.50;;
44304;SDS011;30019;50.576;8.568;2023-04-24T12:10:09;1.20;;;0.60;;
44304;SDS011;30019;50.576;8.568;2023-04-24T12:12:35;1.00;;;0.50;;
44304;SDS011;30019;50.576;8.568;2023-04-24T12:15:01;0.50;;;0.50;;
44304;SDS011;30019;50.576;8.568;2023-04-24T12:17:31;0.55;;;0.55;;
44304;SDS011;30019;50.576;8.568;2023-04-24T12:19:59;0.60;;;0.60;;
44304;SDS011;30019;50.576;8.568;2023-04-24T12:25:19;3.42;;;0.90;;
44304;SDS011;30019;50.576;8.568;2023-04-24T12:27:50;1.55;;;0.82;;
44304;SDS011;30019;50.576;8.568;2023-04-24T12:30:38;0.65;;;0.65;;
44304;SDS011;30019;50.576;8.568;2023-04-24T12:33:16;2.60;;;1.00;;
44304;SDS011;30019;50.576;8.568;2023-04-24T12:35:45;1.67;;;1.00;;
44304;SDS011;30019;50.576;8.568;2023-04-24T12:38:13;1.42;;;0.82;;
44304;SDS011;30019;50.576;8.568;2023-04-24T12:40:39;1.10;;;1.05;;
44304;SDS011;30019;50.576;8.568;2023-04-24T12:43:16;1.20;;;1.10;;
44304;SDS011;30019;50.576;8.568;2023-04-24T12:45:43;1.10;;;1.00;;
44304;SDS011;30019;50.576;8.568;2023-04-24T12:48:09;2.15;;;1.20;;
44304;SDS011;30019;50.576;8.568;2023-04-24T12:50:35;2.97;;;1.10;;
44304;SDS011;30019;50.576;8.568;2023-04-24T12:53:01;3.05;;;1.27;;
44304;SDS011;30019;50.576;8.568;2023-04-24T12:55:27;1.73;;;1.42;;
44304;SDS011;30019;50.576;8.568;2023-04-24T12:57:52;2.67;;;1.55;;
44304;SDS011;30019;50.576;8.568;2023-04-24T13:00:20;3.40;;;1.83;;
44304;SDS011;30019;50.576;8.568;2023-04-24T13:02:46;3.95;;;1.70;;
44304;SDS011;30019;50.576;8.568;2023-04-24T13:05:11;2.83;;;1.50;;
44304;SDS011;30019;50.576;8.568;2023-04-24T13:07:38;2.30;;;1.50;;
44304;SDS011;30019;50.576;8.568;2023-04-24T13:10:05;2.83;;;1.60;;
44304;SDS011;30019;50.576;8.568;2023-04-24T13:12:31;1.48;;;1.20;;
44304;SDS011;30019;50.576;8.568;2023-04-24T13:14:57;1.77;;;1.00;;
44304;SDS011;30019;50.576;8.568;2023-04-24T13:17:22;1.90;;;1.77;;
44304;SDS011;30019;50.576;8.568;2023-04-24T13:19:49;2.12;;;1.83;;
44304;SDS011;30019;50.576;8.568;2023-04-24T13:22:16;3.85;;;1.83;;
44304;SDS011;30019;50.576;8.568;2023-04-24T13:24:43;2.87;;;1.77;;
44304;SDS011;30019;50.576;8.568;2023-04-24T13:27:09;1.40;;;1.30;;
44304;SDS011;30019;50.576;8.568;2023-04-24T13:29:36;3.33;;;1.42;;
44304;SDS011;30019;50.576;8.568;2023-04-24T13:32:02;2.58;;;1.92;;
44304;SDS011;30019;50.576;8.568;2023-04-24T13:34:28;3.03;;;1.70;;
44304;SDS011;30019;50.576;8.568;2023-04-24T13:36:54;2.60;;;1.73;;
44304;SDS011;30019;50.576;8.568;2023-04-24T13:39:21;3.53;;;1.45;;
44304;SDS011;30019;50.576;8.568;2023-04-24T13:41:48;4.05;;;1.87;;
44304;SDS011;30019;50.576;8.568;2023-04-24T13:44:14;2.15;;;1.40;;
44304;SDS011;30019;50.576;8.568;2023-04-24T13:46:41;2.75;;;2.05;;
44304;SDS011;30019;50.576;8.568;2023-04-24T13:49:09;3.42;;;1.30;;
44304;SDS011;30019;50.576;8.568;2023-04-24T13:51:35;4.03;;;1.37;;
44304;SDS011;30019;50.576;8.568;2023-04-24T13:54:01;1.70;;;1.10;;
44304;SDS011;30019;50.576;8.568;2023-04-24T13:56:26;1.30;;;1.20;;
44304;SDS011;30019;50.576;8.568;2023-04-24T13:58:52;3.03;;;1.20;;
44304;SDS011;30019;50.576;8.568;2023-04-24T14:01:19;3.20;;;1.40;;
44304;SDS011;30019;50.576;8.568;2023-04-24T14:03:46;2.17;;;1.45;;
44304;SDS011;30019;50.576;8.568;2023-04-24T14:06:12;1.45;;;1.23;;
44304;SDS011;30019;50.576;8.568;2023-04-24T14:08:37;1.50;;;0.98;;
44304;SDS011;30019;50.576;8.568;2023-04-24T14:11:03;1.20;;;1.10;;
44304;SDS011;30019;50.576;8.568;2023-04-24T14:13:29;1.60;;;1.50;;
44304;SDS011;30019;50.576;8.568;2023-04-24T14:15:55;2.87;;;1.73;;
44304;SDS011;30019;50.576;8.568;2023-04-24T14:18:20;1.52;;;1.42;;
44304;SDS011;30019;50.576;8.568;2023-04-24T14:20:46;3.28;;;1.83;;
44304;SDS011;30019;50.576;8.568;2023-04-24T14:23:11;3.17;;;1.52;;
44304;SDS011;30019;50.576;8.568;2023-04-24T14:25:37;1.48;;;1.30;;
44304;SDS011;30019;50.576;8.568;2023-04-24T14:28:03;2.45;;;1.30;;
44304;SDS011;30019;50.576;8.568;2023-04-24T14:30:28;3.50;;;1.35;;
44304;SDS011;30019;50.576;8.568;2023-04-24T14:32:54;2.37;;;1.45;;
44304;SDS011;30019;50.576;8.568;2023-04-24T14:35:19;1.60;;;1.50;;
44304;SDS011;30019;50.576;8.568;2023-04-24T14:37:45;4.45;;;2.03;;
44304;SDS011;30019;50.576;8.568;2023-04-24T14:40:11;1.62;;;1.42;;
44304;SDS011;30019;50.576;8.568;2023-04-24T14:42:36;3.45;;;1.52;;
44304;SDS011;30019;50.576;8.568;2023-04-24T14:45:02;3.90;;;1.70;;
44304;SDS011;30019;50.576;8.568;2023-04-24T14:47:28;1.60;;;1.50;;
44304;SDS011;30019;50.576;8.568;2023-04-24T14:49:54;4.57;;;1.90;;
44304;SDS011;30019;50.576;8.568;2023-04-24T14:52:20;2.92;;;1.90;;
44304;SDS011;30019;50.576;8.568;2023-04-24T14:54:45;2.22;;;1.83;;
44304;SDS011;30019;50.576;8.568;2023-04-24T14:57:11;3.45;;;2.00;;
44304;SDS011;30019;50.576;8.568;2023-04-24T14:59:37;3.85;;;2.37;;